• Join FlightAware (Why Join?)
  • Login
  • US Flag 
06:15PM EDT


 

Airport Tracker/Info


-or-


 

Live Flight TrackerFlight Track Log ✈ USC105 ✈ 29-Apr-2013 ✈ KYIP - KDPA

Flight Track Log - Related Links

Times and Time Zones

All times are in EDT time to prevent confusion due to time zone crossing. See the USC105 flight status page for this flight to view local times or setup timezone preferences in your user account.

Time Position Orientation Groundspeed Altitude Reporting Facility
EDT Latitude Longitude Course Direction KTS MPH feet Rate Location/Type
12:16AM 42.2100 -83.6053 253° West 121 139 2,500  Level Cleveland Center
12:17AM 42.2108 -83.6503 271° West 118 136 3,400 900 Climbing Cleveland Center
12:18AM 42.2075 -83.6978 265° West 125 144 4,400 780 Climbing Cleveland Center
12:20AM 42.2036 -83.7831 267° West 123 142 5,900 480 Climbing Chicago Center
12:21AM 42.2022 -83.8436 268° West 140 161 5,900  Level Chicago Center
12:22AM 42.2008 -83.9058 268° West 155 178 5,900  Level Chicago Center
12:23AM 42.1958 -83.9711 264° West 166 191 5,900  Level Chicago Center
12:24AM 42.1925 -84.0397 266° West 175 201 5,900  Level Chicago Center
12:25AM 42.1894 -84.1092 267° West 180 207 5,900  Level Chicago Center
12:26AM 42.1836 -84.1794 264° West 184 212 5,900  Level Chicago Center
12:27AM 42.1808 -84.2492 267° West 186 214 5,900  Level Chicago Center
12:28AM 42.1769 -84.3158 266° West 182 209 5,900  Level Chicago Center
12:29AM 42.1731 -84.3836 266° West 181 208 6,000  Climbing Chicago Center
12:30AM 42.1706 -84.4494 267° West 178 205 6,000 -60 Level Chicago Center
12:31AM 42.1669 -84.5161 266° West 179 206 5,900 -60 Descending Chicago Center
12:32AM 42.1625 -84.5933 266° West 180 207 5,900  Level Chicago Center
12:33AM 42.1592 -84.6592 266° West 177 204 5,900  Level Chicago Center
12:34AM 42.1558 -84.7253 266° West 178 205 5,900  Level Chicago Center
12:35AM 42.1511 -84.7906 264° West 177 204 5,900  Level Chicago Center
12:36AM 42.1481 -84.8561 266° West 177 204 5,900  Level Chicago Center
12:37AM 42.1442 -84.9231 266° West 179 206 5,900  Level Chicago Center
12:38AM 42.1406 -84.9861 266° West 174 200 5,900  Level Chicago Center
12:39AM 42.1372 -85.0511 266° West 175 201 6,000  Climbing Chicago Center
12:40AM 42.1331 -85.1153 265° West 173 199 5,900 -60 Descending Chicago Center
12:41AM 42.1300 -85.1792 266° West 172 198 5,900  Level Chicago Center
12:42AM 42.1250 -85.2431 264° West 172 198 5,900  Level Chicago Center
12:43AM 42.1219 -85.3067 266° West 172 198 5,900  Level Chicago Center
12:44AM 42.1175 -85.3708 265° West 173 199 5,900  Level Chicago Center
12:45AM 42.1139 -85.4350 266° West 173 199 5,900  Level Chicago Center
12:46AM 42.1100 -85.5000 265° West 174 200 5,900  Level Chicago Center
12:47AM 42.1056 -85.5642 265° West 174 200 5,900  Level Chicago Center
12:48AM 42.1028 -85.6283 267° West 173 199 5,900  Level Chicago Center
12:49AM 42.0978 -85.6908 264° West 170 196 5,900  Level Chicago Center
12:50AM 42.0933 -85.7547 265° West 171 197 5,900  Level Chicago Center
12:51AM 42.0892 -85.8175 265° West 170 196 5,900  Level Chicago Center
12:52AM 42.0864 -85.8808 267° West 170 196 5,900  Level Chicago Center
12:53AM 42.0814 -85.9442 264° West 170 196 5,900  Level Chicago Center
12:54AM 42.0769 -86.0061 264° West 169 194 5,900  Level Chicago Center
12:55AM 42.0728 -86.0678 265° West 167 192 5,900  Level Chicago Center
12:56AM 42.0692 -86.1317 266° West 170 196 5,900  Level Chicago Center
12:57AM 42.0644 -86.1961 264° West 172 198 5,900  Level Chicago Center
12:58AM 42.0594 -86.2717 265° West 170 196 6,000  Climbing Chicago Center
12:59AM 42.0556 -86.3361 265° West 173 199 6,000  Level Chicago Center
01:00AM 42.0500 -86.4006 263° West 173 199 6,000 -60 Level Chicago Center
01:01AM 42.0456 -86.4644 265° West 172 198 5,900 -60 Descending Chicago Center
01:02AM 42.0411 -86.5272 265° West 171 197 5,900  Level Chicago Center
01:03AM 42.0372 -86.5908 265° West 170 196 6,000  Climbing Chicago Center
01:04AM 42.0331 -86.6511 265° West 164 189 5,900 -60 Descending Chicago Center
01:05AM 42.0311 -86.7094 267° West 165 190 5,900  Level Chicago Center
01:06AM 42.0247 -86.7697 262° West 164 189 5,900  Level Chicago Center
01:07AM 42.0200 -86.8286 264° West 159 183 5,900  Level Chicago Center
01:08AM 42.0161 -86.8886 265° West 161 185 5,900  Level Chicago Center
01:09AM 42.0106 -86.9472 263° West 158 182 5,900 60 Level Chicago Center
01:10AM 42.0075 -87.0072 266° West 162 186 6,100  Climbing Chicago Center
01:11AM 42.0019 -87.0644 263° West 156 180 6,000 -60 Descending Chicago Center
01:12AM 41.9975 -87.1242 264° West 160 184 6,000  Level Chicago Center
01:13AM 41.9936 -87.1828 265° West 159 183 6,000  Level Chicago Center
01:14AM 41.9900 -87.2417 265° West 159 183 6,000  Level Chicago Center
01:15AM 41.9842 -87.2981 262° West 155 178 6,000 -60 Level Chicago Center
01:16AM 41.9792 -87.3681 265° West 159 183 5,900  Descending Chicago Center
01:17AM 41.9833 -87.4000 280° West 157 181 6,000 60 Climbing Chicago TRACON
01:18AM 41.9667 -87.4500 246° West 157 181 6,000  Level Chicago TRACON
01:19AM 41.9667 -87.5167 270° West 158 182 6,000  Level Chicago TRACON
01:20AM 41.9667 -87.5667 270° West 157 181 6,000  Level Chicago TRACON
01:21AM 41.9667 -87.6167 270° West 157 181 6,000  Level Chicago TRACON
01:22AM 41.9500 -87.6833 251° West 157 181 6,000  Level Chicago TRACON
01:23AM 41.9500 -87.7333 270° West 154 177 6,000  Level Chicago TRACON
01:24AM 41.9500 -87.8000 270° West 157 181 6,000  Level Chicago TRACON
01:25AM 41.9333 -87.8500 246° West 151 174 6,000 -120 Level Chicago TRACON
01:26AM 41.9333 -87.9000 270° West 151 174 5,800 -720 Descending Chicago TRACON
01:27AM 41.9333 -87.9667 270° West 174 200 4,600 -1,200 Descending Chicago TRACON
01:28AM 41.9167 -88.0333 251° West 174 200 3,400 -1,020 Descending Chicago TRACON
01:29AM 41.9167 -88.0833 270° West 155 178 2,600 -780 Descending Chicago TRACON
01:30AM 41.9167 -88.1333 270° West 149 171 1,900 -540 Descending Chicago TRACON
01:30AM 41.9069 -88.1731 252° West 154 177 1,800 -540 Descending Chicago Center
01:31AM 41.9075 -88.2175 271° West 139 160 1,100 -420 Descending Chicago Center
01:32AM 41.9100 -88.2608 274° West 135 155 1,000 -120 Descending Chicago Center